sensor_id;sensor_type;location;lat;lon;timestamp;P1;durP1;ratioP1;P2;durP2;ratioP2
79640;SDS011;69115;49.904;14.390;2023-08-31T00:00:10;8.52;;;7.53;;
79640;SDS011;69115;49.904;14.390;2023-08-31T00:02:37;12.25;;;8.98;;
79640;SDS011;69115;49.904;14.390;2023-08-31T00:05:04;12.00;;;9.23;;
79640;SDS011;69115;49.904;14.390;2023-08-31T00:07:30;15.63;;;8.65;;
79640;SDS011;69115;49.904;14.390;2023-08-31T00:09:56;13.10;;;8.85;;
79640;SDS011;69115;49.904;14.390;2023-08-31T00:12:21;11.23;;;7.95;;
79640;SDS011;69115;49.904;14.390;2023-08-31T00:14:49;10.57;;;8.55;;
79640;SDS011;69115;49.904;14.390;2023-08-31T00:17:15;15.32;;;8.85;;
79640;SDS011;69115;49.904;14.390;2023-08-31T00:19:40;12.60;;;9.10;;
79640;SDS011;69115;49.904;14.390;2023-08-31T00:22:06;9.95;;;8.27;;
79640;SDS011;69115;49.904;14.390;2023-08-31T00:24:31;12.68;;;9.20;;
79640;SDS011;69115;49.904;14.390;2023-08-31T00:27:02;11.20;;;7.78;;
79640;SDS011;69115;49.904;14.390;2023-08-31T00:29:28;18.25;;;9.25;;
79640;SDS011;69115;49.904;14.390;2023-08-31T00:31:54;15.60;;;8.20;;
79640;SDS011;69115;49.904;14.390;2023-08-31T00:34:20;11.50;;;8.35;;
79640;SDS011;69115;49.904;14.390;2023-08-31T00:36:45;10.55;;;8.45;;
79640;SDS011;69115;49.904;14.390;2023-08-31T00:39:11;11.88;;;8.65;;
79640;SDS011;69115;49.904;14.390;2023-08-31T00:41:37;10.55;;;8.13;;
79640;SDS011;69115;49.904;14.390;2023-08-31T00:44:03;10.75;;;8.13;;
79640;SDS011;69115;49.904;14.390;2023-08-31T00:46:32;10.90;;;8.50;;
79640;SDS011;69115;49.904;14.390;2023-08-31T00:48:58;11.60;;;7.93;;
79640;SDS011;69115;49.904;14.390;2023-08-31T00:51:23;11.70;;;7.93;;
79640;SDS011;69115;49.904;14.390;2023-08-31T00:53:50;11.13;;;7.93;;
79640;SDS011;69115;49.904;14.390;2023-08-31T00:56:18;8.70;;;7.63;;
79640;SDS011;69115;49.904;14.390;2023-08-31T00:58:44;8.68;;;7.45;;
79640;SDS011;69115;49.904;14.390;2023-08-31T01:01:17;9.32;;;7.55;;
79640;SDS011;69115;49.904;14.390;2023-08-31T01:04:10;11.35;;;7.85;;
79640;SDS011;69115;49.904;14.390;2023-08-31T01:09:36;13.65;;;8.57;;
79640;SDS011;69115;49.904;14.390;2023-08-31T01:12:10;9.38;;;8.35;;
79640;SDS011;69115;49.904;14.390;2023-08-31T01:14:39;10.70;;;8.70;;
79640;SDS011;69115;49.904;14.390;2023-08-31T01:17:07;11.40;;;7.80;;
79640;SDS011;69115;49.904;14.390;2023-08-31T01:22:14;9.48;;;8.38;;
79640;SDS011;69115;49.904;14.390;2023-08-31T01:24:43;10.27;;;7.93;;
79640;SDS011;69115;49.904;14.390;2023-08-31T01:27:09;11.93;;;8.93;;
79640;SDS011;69115;49.904;14.390;2023-08-31T01:29:34;8.90;;;7.57;;
79640;SDS011;69115;49.904;14.390;2023-08-31T01:32:00;11.02;;;8.45;;
79640;SDS011;69115;49.904;14.390;2023-08-31T01:34:25;13.18;;;8.50;;
79640;SDS011;69115;49.904;14.390;2023-08-31T01:36:53;10.68;;;8.48;;
79640;SDS011;69115;49.904;14.390;2023-08-31T01:39:30;12.25;;;9.05;;
79640;SDS011;69115;49.904;14.390;2023-08-31T01:42:00;14.90;;;8.38;;
79640;SDS011;69115;49.904;14.390;2023-08-31T01:44:28;12.10;;;8.68;;
79640;SDS011;69115;49.904;14.390;2023-08-31T01:47:02;11.98;;;9.30;;
79640;SDS011;69115;49.904;14.390;2023-08-31T01:49:40;13.15;;;9.30;;
79640;SDS011;69115;49.904;14.390;2023-08-31T01:52:06;12.52;;;9.13;;
79640;SDS011;69115;49.904;14.390;2023-08-31T01:54:32;12.18;;;8.48;;
79640;SDS011;69115;49.904;14.390;2023-08-31T01:56:57;11.73;;;8.50;;
79640;SDS011;69115;49.904;14.390;2023-08-31T01:59:23;12.95;;;8.90;;
79640;SDS011;69115;49.904;14.390;2023-08-31T02:01:48;10.52;;;8.30;;
79640;SDS011;69115;49.904;14.390;2023-08-31T02:04:14;10.35;;;7.38;;
79640;SDS011;69115;49.904;14.390;2023-08-31T02:06:39;10.77;;;7.97;;
79640;SDS011;69115;49.904;14.390;2023-08-31T02:09:05;10.13;;;7.68;;
79640;SDS011;69115;49.904;14.390;2023-08-31T02:11:31;11.30;;;7.40;;
79640;SDS011;69115;49.904;14.390;2023-08-31T02:13:56;11.77;;;7.90;;
79640;SDS011;69115;49.904;14.390;2023-08-31T02:16:23;10.45;;;6.85;;
79640;SDS011;69115;49.904;14.390;2023-08-31T02:18:48;10.45;;;7.60;;
79640;SDS011;69115;49.904;14.390;2023-08-31T02:21:13;8.65;;;6.78;;
79640;SDS011;69115;49.904;14.390;2023-08-31T02:23:39;8.45;;;6.85;;
79640;SDS011;69115;49.904;14.390;2023-08-31T02:26:04;10.60;;;6.88;;
79640;SDS011;69115;49.904;14.390;2023-08-31T02:28:30;9.60;;;6.90;;
79640;SDS011;69115;49.904;14.390;2023-08-31T02:30:59;9.38;;;6.90;;
79640;SDS011;69115;49.904;14.390;2023-08-31T02:33:25;9.88;;;6.97;;
79640;SDS011;69115;49.904;14.390;2023-08-31T02:35:51;8.43;;;7.00;;
79640;SDS011;69115;49.904;14.390;2023-08-31T02:38:18;8.95;;;7.35;;
79640;SDS011;69115;49.904;14.390;2023-08-31T02:40:46;8.93;;;7.50;;
79640;SDS011;69115;49.904;14.390;2023-08-31T02:43:12;10.35;;;7.05;;
79640;SDS011;69115;49.904;14.390;2023-08-31T02:45:38;8.70;;;6.68;;
79640;SDS011;69115;49.904;14.390;2023-08-31T02:48:03;9.05;;;7.50;;
79640;SDS011;69115;49.904;14.390;2023-08-31T02:50:31;9.52;;;7.03;;
79640;SDS011;69115;49.904;14.390;2023-08-31T02:52:56;10.50;;;7.65;;
79640;SDS011;69115;49.904;14.390;2023-08-31T02:55:22;11.82;;;8.15;;
79640;SDS011;69115;49.904;14.390;2023-08-31T02:57:48;11.43;;;8.52;;
79640;SDS011;69115;49.904;14.390;2023-08-31T03:00:13;11.10;;;7.63;;
79640;SDS011;69115;49.904;14.390;2023-08-31T03:02:39;9.85;;;7.57;;
79640;SDS011;69115;49.904;14.390;2023-08-31T03:05:05;9.70;;;8.25;;
79640;SDS011;69115;49.904;14.390;2023-08-31T03:07:31;9.40;;;7.57;;
79640;SDS011;69115;49.904;14.390;2023-08-31T03:09:57;11.88;;;7.88;;
79640;SDS011;69115;49.904;14.390;2023-08-31T03:12:22;9.70;;;7.88;;
79640;SDS011;69115;49.904;14.390;2023-08-31T03:14:48;9.25;;;7.55;;
79640;SDS011;69115;49.904;14.390;2023-08-31T03:17:13;9.93;;;8.15;;
79640;SDS011;69115;49.904;14.390;2023-08-31T03:19:38;10.73;;;7.35;;
79640;SDS011;69115;49.904;14.390;2023-08-31T03:22:04;9.52;;;7.90;;
79640;SDS011;69115;49.904;14.390;2023-08-31T03:24:29;13.80;;;8.25;;
79640;SDS011;69115;49.904;14.390;2023-08-31T03:26:54;9.88;;;7.82;;
79640;SDS011;69115;49.904;14.390;2023-08-31T03:29:20;9.00;;;7.38;;
79640;SDS011;69115;49.904;14.390;2023-08-31T03:31:46;10.80;;;7.68;;
79640;SDS011;69115;49.904;14.390;2023-08-31T03:34:11;9.52;;;7.15;;
79640;SDS011;69115;49.904;14.390;2023-08-31T03:36:37;9.77;;;7.28;;
79640;SDS011;69115;49.904;14.390;2023-08-31T03:39:02;11.57;;;8.48;;
79640;SDS011;69115;49.904;14.390;2023-08-31T03:41:28;9.68;;;8.02;;
79640;SDS011;69115;49.904;14.390;2023-08-31T03:43:53;11.98;;;9.00;;
79640;SDS011;69115;49.904;14.390;2023-08-31T03:46:19;12.68;;;8.65;;
79640;SDS011;69115;49.904;14.390;2023-08-31T03:48:44;13.02;;;9.15;;
79640;SDS011;69115;49.904;14.390;2023-08-31T03:51:10;10.02;;;8.23;;
79640;SDS011;69115;49.904;14.390;2023-08-31T03:53:35;9.60;;;7.70;;
79640;SDS011;69115;49.904;14.390;2023-08-31T03:56:00;11.38;;;7.95;;
79640;SDS011;69115;49.904;14.390;2023-08-31T03:58:26;11.00;;;7.35;;
79640;SDS011;69115;49.904;14.390;2023-08-31T04:00:52;10.90;;;7.60;;
79640;SDS011;69115;49.904;14.390;2023-08-31T04:03:17;11.93;;;8.30;;
79640;SDS011;69115;49.904;14.390;2023-08-31T04:05:42;11.85;;;7.85;;
79640;SDS011;69115;49.904;14.390;2023-08-31T04:08:08;8.35;;;7.20;;
79640;SDS011;69115;49.904;14.390;2023-08-31T04:10:33;10.65;;;7.38;;
79640;SDS011;69115;49.904;14.390;2023-08-31T04:12:59;9.45;;;7.70;;
79640;SDS011;69115;49.904;14.390;2023-08-31T04:15:24;11.75;;;8.27;;
79640;SDS011;69115;49.904;14.390;2023-08-31T04:17:49;11.00;;;8.27;;
79640;SDS011;69115;49.904;14.390;2023-08-31T04:20:15;9.23;;;7.93;;
79640;SDS011;69115;49.904;14.390;2023-08-31T04:22:40;10.88;;;7.65;;
79640;SDS011;69115;49.904;14.390;2023-08-31T04:25:06;10.05;;;7.47;;
79640;SDS011;69115;49.904;14.390;2023-08-31T04:27:32;9.95;;;7.45;;
79640;SDS011;69115;49.904;14.390;2023-08-31T04:30:00;9.65;;;7.68;;
79640;SDS011;69115;49.904;14.390;2023-08-31T04:32:26;9.63;;;7.55;;
79640;SDS011;69115;49.904;14.390;2023-08-31T04:34:52;10.48;;;7.32;;
79640;SDS011;69115;49.904;14.390;2023-08-31T04:37:18;10.07;;;7.47;;
79640;SDS011;69115;49.904;14.390;2023-08-31T04:39:43;10.00;;;7.60;;
79640;SDS011;69115;49.904;14.390;2023-08-31T04:42:08;12.55;;;8.32;;
79640;SDS011;69115;49.904;14.390;2023-08-31T04:44:34;13.55;;;8.70;;
79640;SDS011;69115;49.904;14.390;2023-08-31T04:47:00;13.25;;;8.05;;
79640;SDS011;69115;49.904;14.390;2023-08-31T04:49:25;13.50;;;7.80;;
79640;SDS011;69115;49.904;14.390;2023-08-31T04:51:51;12.43;;;8.57;;
79640;SDS011;69115;49.904;14.390;2023-08-31T04:54:17;11.00;;;7.82;;
79640;SDS011;69115;49.904;14.390;2023-08-31T04:56:42;11.85;;;8.80;;
79640;SDS011;69115;49.904;14.390;2023-08-31T04:59:08;14.82;;;8.85;;
79640;SDS011;69115;49.904;14.390;2023-08-31T05:01:33;13.40;;;8.18;;
79640;SDS011;69115;49.904;14.390;2023-08-31T05:03:58;14.38;;;7.95;;
79640;SDS011;69115;49.904;14.390;2023-08-31T05:06:24;14.30;;;8.07;;
79640;SDS011;69115;49.904;14.390;2023-08-31T05:08:49;14.65;;;9.20;;
79640;SDS011;69115;49.904;14.390;2023-08-31T05:11:15;15.15;;;8.57;;
79640;SDS011;69115;49.904;14.390;2023-08-31T05:13:40;11.32;;;7.95;;
79640;SDS011;69115;49.904;14.390;2023-08-31T05:16:10;10.88;;;8.15;;
79640;SDS011;69115;49.904;14.390;2023-08-31T05:18:36;12.00;;;8.02;;
79640;SDS011;69115;49.904;14.390;2023-08-31T05:21:03;13.13;;;8.20;;
79640;SDS011;69115;49.904;14.390;2023-08-31T05:23:28;10.85;;;8.18;;
79640;SDS011;69115;49.904;14.390;2023-08-31T05:25:54;9.60;;;7.47;;
79640;SDS011;69115;49.904;14.390;2023-08-31T05:28:21;9.23;;;6.93;;
79640;SDS011;69115;49.904;14.390;2023-08-31T05:30:48;8.35;;;5.97;;
79640;SDS011;69115;49.904;14.390;2023-08-31T05:33:19;8.60;;;6.20;;
79640;SDS011;69115;49.904;14.390;2023-08-31T05:35:50;10.15;;;6.72;;
79640;SDS011;69115;49.904;14.390;2023-08-31T05:38:15;8.15;;;6.03;;
79640;SDS011;69115;49.904;14.390;2023-08-31T05:40:41;7.38;;;5.90;;
79640;SDS011;69115;49.904;14.390;2023-08-31T05:43:11;6.72;;;5.10;;
79640;SDS011;69115;49.904;14.390;2023-08-31T05:45:37;8.75;;;5.38;;
79640;SDS011;69115;49.904;14.390;2023-08-31T05:48:03;5.93;;;4.90;;
79640;SDS011;69115;49.904;14.390;2023-08-31T05:50:29;6.22;;;4.82;;
79640;SDS011;69115;49.904;14.390;2023-08-31T05:52:55;5.40;;;4.40;;
79640;SDS011;69115;49.904;14.390;2023-08-31T05:55:20;5.95;;;4.63;;
79640;SDS011;69115;49.904;14.390;2023-08-31T05:57:46;5.78;;;4.72;;
79640;SDS011;69115;49.904;14.390;2023-08-31T06:00:11;6.80;;;4.70;;
79640;SDS011;69115;49.904;14.390;2023-08-31T06:02:37;5.35;;;4.53;;
79640;SDS011;69115;49.904;14.390;2023-08-31T06:05:03;5.75;;;4.55;;
79640;SDS011;69115;49.904;14.390;2023-08-31T06:07:29;7.10;;;4.60;;
79640;SDS011;69115;49.904;14.390;2023-08-31T06:09:55;5.68;;;4.60;;
79640;SDS011;69115;49.904;14.390;2023-08-31T06:12:22;6.78;;;4.53;;
79640;SDS011;69115;49.904;14.390;2023-08-31T06:14:47;8.23;;;5.07;;
79640;SDS011;69115;49.904;14.390;2023-08-31T06:17:12;7.82;;;5.13;;
79640;SDS011;69115;49.904;14.390;2023-08-31T06:19:38;5.55;;;4.90;;
79640;SDS011;69115;49.904;14.390;2023-08-31T06:22:04;5.70;;;4.68;;
79640;SDS011;69115;49.904;14.390;2023-08-31T06:24:29;6.82;;;4.53;;
79640;SDS011;69115;49.904;14.390;2023-08-31T06:26:55;6.78;;;4.43;;
79640;SDS011;69115;49.904;14.390;2023-08-31T06:29:21;4.47;;;3.30;;
79640;SDS011;69115;49.904;14.390;2023-08-31T06:31:47;5.22;;;3.72;;
79640;SDS011;69115;49.904;14.390;2023-08-31T06:34:12;5.40;;;4.13;;
79640;SDS011;69115;49.904;14.390;2023-08-31T06:36:38;5.05;;;4.10;;
79640;SDS011;69115;49.904;14.390;2023-08-31T06:39:03;5.38;;;4.03;;
79640;SDS011;69115;49.904;14.390;2023-08-31T06:41:30;5.95;;;3.80;;
79640;SDS011;69115;49.904;14.390;2023-08-31T06:43:56;6.72;;;3.63;;
79640;SDS011;69115;49.904;14.390;2023-08-31T06:46:21;5.57;;;3.50;;
79640;SDS011;69115;49.904;14.390;2023-08-31T06:48:47;3.53;;;2.80;;
79640;SDS011;69115;49.904;14.390;2023-08-31T06:51:15;4.10;;;3.00;;
79640;SDS011;69115;49.904;14.390;2023-08-31T06:53:41;4.05;;;3.22;;
79640;SDS011;69115;49.904;14.390;2023-08-31T06:56:08;4.78;;;3.03;;
79640;SDS011;69115;49.904;14.390;2023-08-31T06:58:33;5.50;;;3.35;;
79640;SDS011;69115;49.904;14.390;2023-08-31T07:00:59;4.57;;;3.08;;
79640;SDS011;69115;49.904;14.390;2023-08-31T07:03:24;4.20;;;3.10;;
79640;SDS011;69115;49.904;14.390;2023-08-31T07:05:49;5.07;;;2.90;;
79640;SDS011;69115;49.904;14.390;2023-08-31T07:08:15;4.28;;;3.20;;
79640;SDS011;69115;49.904;14.390;2023-08-31T07:10:40;4.10;;;3.05;;
79640;SDS011;69115;49.904;14.390;2023-08-31T07:13:06;4.28;;;3.10;;
79640;SDS011;69115;49.904;14.390;2023-08-31T07:15:31;4.35;;;3.00;;
79640;SDS011;69115;49.904;14.390;2023-08-31T07:17:57;6.13;;;3.03;;
79640;SDS011;69115;49.904;14.390;2023-08-31T07:20:22;4.05;;;2.70;;
79640;SDS011;69115;49.904;14.390;2023-08-31T07:22:48;3.92;;;3.00;;
79640;SDS011;69115;49.904;14.390;2023-08-31T07:25:13;5.28;;;3.08;;
79640;SDS011;69115;49.904;14.390;2023-08-31T07:27:38;5.03;;;2.80;;
79640;SDS011;69115;49.904;14.390;2023-08-31T07:30:04;5.45;;;2.78;;
79640;SDS011;69115;49.904;14.390;2023-08-31T07:32:30;3.83;;;2.50;;
79640;SDS011;69115;49.904;14.390;2023-08-31T07:34:56;4.72;;;2.45;;
79640;SDS011;69115;49.904;14.390;2023-08-31T07:37:21;3.20;;;2.35;;
79640;SDS011;69115;49.904;14.390;2023-08-31T07:39:47;6.38;;;2.58;;
79640;SDS011;69115;49.904;14.390;2023-08-31T07:42:12;3.58;;;2.55;;
79640;SDS011;69115;49.904;14.390;2023-08-31T07:44:38;5.43;;;2.33;;
79640;SDS011;69115;49.904;14.390;2023-08-31T07:47:03;3.63;;;2.00;;
79640;SDS011;69115;49.904;14.390;2023-08-31T07:49:29;5.25;;;2.38;;
79640;SDS011;69115;49.904;14.390;2023-08-31T07:51:54;4.22;;;2.35;;
79640;SDS011;69115;49.904;14.390;2023-08-31T07:54:23;6.13;;;2.50;;
79640;SDS011;69115;49.904;14.390;2023-08-31T07:56:48;4.97;;;2.78;;
79640;SDS011;69115;49.904;14.390;2023-08-31T07:59:14;4.30;;;2.42;;
79640;SDS011;69115;49.904;14.390;2023-08-31T08:01:41;3.75;;;2.60;;
79640;SDS011;69115;49.904;14.390;2023-08-31T08:04:07;4.05;;;2.30;;
79640;SDS011;69115;49.904;14.390;2023-08-31T08:06:32;5.00;;;2.60;;
79640;SDS011;69115;49.904;14.390;2023-08-31T08:08:57;3.30;;;2.45;;
79640;SDS011;69115;49.904;14.390;2023-08-31T08:11:23;3.38;;;2.30;;
79640;SDS011;69115;49.904;14.390;2023-08-31T08:13:48;3.72;;;2.40;;
79640;SDS011;69115;49.904;14.390;2023-08-31T08:16:14;4.88;;;2.92;;
79640;SDS011;69115;49.904;14.390;2023-08-31T08:18:39;5.45;;;2.60;;
79640;SDS011;69115;49.904;14.390;2023-08-31T08:21:06;3.75;;;2.30;;
79640;SDS011;69115;49.904;14.390;2023-08-31T08:23:32;5.38;;;2.33;;
79640;SDS011;69115;49.904;14.390;2023-08-31T08:25:57;4.93;;;2.42;;
79640;SDS011;69115;49.904;14.390;2023-08-31T08:28:25;3.85;;;2.30;;
79640;SDS011;69115;49.904;14.390;2023-08-31T08:30:51;5.47;;;2.70;;
79640;SDS011;69115;49.904;14.390;2023-08-31T08:33:16;5.75;;;2.50;;
79640;SDS011;69115;49.904;14.390;2023-08-31T08:35:42;8.63;;;2.67;;
79640;SDS011;69115;49.904;14.390;2023-08-31T08:38:07;3.97;;;2.13;;
79640;SDS011;69115;49.904;14.390;2023-08-31T08:40:34;4.75;;;2.47;;
79640;SDS011;69115;49.904;14.390;2023-08-31T08:43:00;4.28;;;2.30;;
79640;SDS011;69115;49.904;14.390;2023-08-31T08:45:26;4.10;;;2.22;;
79640;SDS011;69115;49.904;14.390;2023-08-31T08:47:57;6.60;;;3.17;;
79640;SDS011;69115;49.904;14.390;2023-08-31T08:50:22;4.50;;;2.25;;
79640;SDS011;69115;49.904;14.390;2023-08-31T08:52:49;4.30;;;2.38;;
79640;SDS011;69115;49.904;14.390;2023-08-31T08:55:14;6.30;;;2.67;;
79640;SDS011;69115;49.904;14.390;2023-08-31T08:57:40;3.60;;;2.22;;
79640;SDS011;69115;49.904;14.390;2023-08-31T09:00:05;4.43;;;2.33;;
79640;SDS011;69115;49.904;14.390;2023-08-31T09:02:31;5.35;;;2.40;;
79640;SDS011;69115;49.904;14.390;2023-08-31T09:04:57;6.78;;;2.38;;
79640;SDS011;69115;49.904;14.390;2023-08-31T09:07:23;4.65;;;2.10;;
79640;SDS011;69115;49.904;14.390;2023-08-31T09:09:50;5.10;;;2.47;;
79640;SDS011;69115;49.904;14.390;2023-08-31T09:12:16;4.75;;;2.60;;
79640;SDS011;69115;49.904;14.390;2023-08-31T09:14:42;3.85;;;2.13;;
79640;SDS011;69115;49.904;14.390;2023-08-31T09:17:08;5.03;;;2.70;;
79640;SDS011;69115;49.904;14.390;2023-08-31T09:19:33;5.35;;;2.35;;
79640;SDS011;69115;49.904;14.390;2023-08-31T09:21:59;5.95;;;2.55;;
79640;SDS011;69115;49.904;14.390;2023-08-31T09:24:24;7.90;;;2.45;;
79640;SDS011;69115;49.904;14.390;2023-08-31T09:26:52;7.93;;;2.55;;
79640;SDS011;69115;49.904;14.390;2023-08-31T09:29:26;4.88;;;2.30;;
79640;SDS011;69115;49.904;14.390;2023-08-31T09:31:52;4.50;;;2.28;;
79640;SDS011;69115;49.904;14.390;2023-08-31T09:34:17;5.80;;;2.38;;
79640;SDS011;69115;49.904;14.390;2023-08-31T09:36:43;5.40;;;2.22;;
79640;SDS011;69115;49.904;14.390;2023-08-31T09:39:09;3.35;;;2.50;;
79640;SDS011;69115;49.904;14.390;2023-08-31T09:41:51;5.82;;;2.60;;
79640;SDS011;69115;49.904;14.390;2023-08-31T09:44:18;4.75;;;2.33;;
79640;SDS011;69115;49.904;14.390;2023-08-31T09:46:44;4.00;;;2.30;;
79640;SDS011;69115;49.904;14.390;2023-08-31T09:49:11;6.07;;;2.78;;
79640;SDS011;69115;49.904;14.390;2023-08-31T09:51:38;4.18;;;2.47;;
79640;SDS011;69115;49.904;14.390;2023-08-31T09:54:04;4.78;;;2.92;;
79640;SDS011;69115;49.904;14.390;2023-08-31T09:56:31;5.50;;;2.88;;
79640;SDS011;69115;49.904;14.390;2023-08-31T09:58:58;6.20;;;2.70;;
79640;SDS011;69115;49.904;14.390;2023-08-31T10:01:23;4.75;;;2.65;;
79640;SDS011;69115;49.904;14.390;2023-08-31T10:03:48;6.60;;;2.85;;
79640;SDS011;69115;49.904;14.390;2023-08-31T10:06:15;4.68;;;2.60;;
79640;SDS011;69115;49.904;14.390;2023-08-31T10:08:41;5.20;;;2.60;;
79640;SDS011;69115;49.904;14.390;2023-08-31T10:11:06;5.13;;;2.40;;
79640;SDS011;69115;49.904;14.390;2023-08-31T10:13:35;4.35;;;2.53;;
79640;SDS011;69115;49.904;14.390;2023-08-31T10:16:04;4.45;;;2.42;;
79640;SDS011;69115;49.904;14.390;2023-08-31T10:18:30;3.85;;;2.50;;
79640;SDS011;69115;49.904;14.390;2023-08-31T10:20:56;7.40;;;2.92;;
79640;SDS011;69115;49.904;14.390;2023-08-31T10:23:21;4.15;;;2.60;;
79640;SDS011;69115;49.904;14.390;2023-08-31T10:28:22;4.65;;;2.35;;
79640;SDS011;69115;49.904;14.390;2023-08-31T10:33:33;3.97;;;2.30;;
79640;SDS011;69115;49.904;14.390;2023-08-31T10:36:00;3.70;;;2.17;;
79640;SDS011;69115;49.904;14.390;2023-08-31T10:38:29;4.75;;;2.40;;
79640;SDS011;69115;49.904;14.390;2023-08-31T10:43:46;4.53;;;2.10;;
79640;SDS011;69115;49.904;14.390;2023-08-31T10:46:16;4.78;;;2.53;;
79640;SDS011;69115;49.904;14.390;2023-08-31T10:48:51;5.97;;;2.40;;
79640;SDS011;69115;49.904;14.390;2023-08-31T10:51:18;4.72;;;2.20;;
79640;SDS011;69115;49.904;14.390;2023-08-31T10:53:45;4.65;;;2.40;;
79640;SDS011;69115;49.904;14.390;2023-08-31T10:56:11;4.43;;;2.30;;
79640;SDS011;69115;49.904;14.390;2023-08-31T10:58:36;4.50;;;2.28;;
79640;SDS011;69115;49.904;14.390;2023-08-31T11:01:02;4.38;;;2.00;;
79640;SDS011;69115;49.904;14.390;2023-08-31T11:03:29;4.03;;;2.20;;
79640;SDS011;69115;49.904;14.390;2023-08-31T11:05:55;5.28;;;2.20;;
79640;SDS011;69115;49.904;14.390;2023-08-31T11:08:26;4.30;;;2.28;;
79640;SDS011;69115;49.904;14.390;2023-08-31T11:10:52;4.50;;;2.55;;
79640;SDS011;69115;49.904;14.390;2023-08-31T11:13:22;5.72;;;2.45;;
79640;SDS011;69115;49.904;14.390;2023-08-31T11:15:48;4.80;;;2.30;;
79640;SDS011;69115;49.904;14.390;2023-08-31T11:18:14;4.32;;;2.30;;
79640;SDS011;69115;49.904;14.390;2023-08-31T11:20:42;5.30;;;2.35;;
79640;SDS011;69115;49.904;14.390;2023-08-31T11:23:08;3.80;;;2.20;;
79640;SDS011;69115;49.904;14.390;2023-08-31T11:25:33;8.18;;;2.20;;
79640;SDS011;69115;49.904;14.390;2023-08-31T11:28:03;4.30;;;2.45;;
79640;SDS011;69115;49.904;14.390;2023-08-31T11:30:30;4.78;;;2.33;;
79640;SDS011;69115;49.904;14.390;2023-08-31T11:32:57;5.07;;;2.28;;
79640;SDS011;69115;49.904;14.390;2023-08-31T11:35:22;7.25;;;2.47;;
79640;SDS011;69115;49.904;14.390;2023-08-31T11:37:50;3.80;;;2.42;;
79640;SDS011;69115;49.904;14.390;2023-08-31T11:40:17;4.25;;;2.30;;
79640;SDS011;69115;49.904;14.390;2023-08-31T11:42:42;5.28;;;2.30;;
79640;SDS011;69115;49.904;14.390;2023-08-31T11:45:08;4.78;;;2.20;;
79640;SDS011;69115;49.904;14.390;2023-08-31T11:47:36;7.75;;;2.40;;
79640;SDS011;69115;49.904;14.390;2023-08-31T11:50:02;4.40;;;2.33;;
79640;SDS011;69115;49.904;14.390;2023-08-31T11:52:30;4.22;;;2.50;;
79640;SDS011;69115;49.904;14.390;2023-08-31T11:54:55;4.70;;;2.00;;
79640;SDS011;69115;49.904;14.390;2023-08-31T11:57:24;3.72;;;2.10;;
79640;SDS011;69115;49.904;14.390;2023-08-31T11:59:51;3.90;;;2.10;;
79640;SDS011;69115;49.904;14.390;2023-08-31T12:02:18;5.38;;;2.13;;
79640;SDS011;69115;49.904;14.390;2023-08-31T12:04:44;5.03;;;2.10;;
79640;SDS011;69115;49.904;14.390;2023-08-31T12:07:11;5.68;;;2.38;;
79640;SDS011;69115;49.904;14.390;2023-08-31T12:09:37;5.25;;;2.15;;
79640;SDS011;69115;49.904;14.390;2023-08-31T12:12:03;3.53;;;2.05;;
79640;SDS011;69115;49.904;14.390;2023-08-31T12:17:02;5.28;;;2.30;;
79640;SDS011;69115;49.904;14.390;2023-08-31T12:19:29;3.70;;;1.92;;
79640;SDS011;69115;49.904;14.390;2023-08-31T12:21:56;4.82;;;2.20;;
79640;SDS011;69115;49.904;14.390;2023-08-31T12:24:22;6.80;;;2.15;;
79640;SDS011;69115;49.904;14.390;2023-08-31T12:26:48;4.15;;;2.17;;
79640;SDS011;69115;49.904;14.390;2023-08-31T12:29:14;5.93;;;2.28;;
79640;SDS011;69115;49.904;14.390;2023-08-31T12:31:40;4.82;;;2.00;;
79640;SDS011;69115;49.904;14.390;2023-08-31T12:34:05;5.28;;;2.20;;
79640;SDS011;69115;49.904;14.390;2023-08-31T12:36:32;5.18;;;1.98;;
79640;SDS011;69115;49.904;14.390;2023-08-31T12:38:58;3.97;;;1.95;;
79640;SDS011;69115;49.904;14.390;2023-08-31T12:41:28;5.72;;;2.30;;
79640;SDS011;69115;49.904;14.390;2023-08-31T12:43:57;4.45;;;2.25;;
79640;SDS011;69115;49.904;14.390;2023-08-31T12:46:23;4.57;;;2.13;;
79640;SDS011;69115;49.904;14.390;2023-08-31T12:48:49;6.00;;;2.10;;
79640;SDS011;69115;49.904;14.390;2023-08-31T12:51:15;2.67;;;1.73;;
79640;SDS011;69115;49.904;14.390;2023-08-31T12:53:41;5.75;;;2.35;;
79640;SDS011;69115;49.904;14.390;2023-08-31T12:56:06;4.40;;;2.17;;
79640;SDS011;69115;49.904;14.390;2023-08-31T12:58:32;3.05;;;2.13;;
79640;SDS011;69115;49.904;14.390;2023-08-31T13:00:58;4.57;;;2.42;;
79640;SDS011;69115;49.904;14.390;2023-08-31T13:03:24;4.50;;;2.20;;
79640;SDS011;69115;49.904;14.390;2023-08-31T13:05:50;4.45;;;2.10;;
79640;SDS011;69115;49.904;14.390;2023-08-31T13:08:16;4.50;;;2.10;;
79640;SDS011;69115;49.904;14.390;2023-08-31T13:10:41;4.38;;;2.00;;
79640;SDS011;69115;49.904;14.390;2023-08-31T13:13:06;6.78;;;2.20;;
79640;SDS011;69115;49.904;14.390;2023-08-31T13:15:32;6.10;;;2.30;;
79640;SDS011;69115;49.904;14.390;2023-08-31T13:17:58;4.40;;;2.28;;
79640;SDS011;69115;49.904;14.390;2023-08-31T13:20:23;4.35;;;2.13;;
79640;SDS011;69115;49.904;14.390;2023-08-31T13:22:49;6.40;;;2.28;;
79640;SDS011;69115;49.904;14.390;2023-08-31T13:25:14;3.60;;;2.20;;
79640;SDS011;69115;49.904;14.390;2023-08-31T13:27:40;5.20;;;2.30;;
79640;SDS011;69115;49.904;14.390;2023-08-31T13:30:06;3.63;;;2.05;;
79640;SDS011;69115;49.904;14.390;2023-08-31T13:32:32;6.22;;;2.15;;
79640;SDS011;69115;49.904;14.390;2023-08-31T13:34:58;4.13;;;2.00;;
79640;SDS011;69115;49.904;14.390;2023-08-31T13:37:24;5.32;;;2.20;;
79640;SDS011;69115;49.904;14.390;2023-08-31T13:39:49;4.10;;;2.35;;
79640;SDS011;69115;49.904;14.390;2023-08-31T13:42:17;5.32;;;2.53;;
79640;SDS011;69115;49.904;14.390;2023-08-31T13:44:42;4.55;;;2.30;;
79640;SDS011;69115;49.904;14.390;2023-08-31T13:47:08;4.78;;;2.42;;
79640;SDS011;69115;49.904;14.390;2023-08-31T13:49:34;5.43;;;2.20;;
79640;SDS011;69115;49.904;14.390;2023-08-31T13:51:59;3.33;;;2.17;;
79640;SDS011;69115;49.904;14.390;2023-08-31T13:54:25;4.60;;;2.20;;
79640;SDS011;69115;49.904;14.390;2023-08-31T13:56:50;5.05;;;2.33;;
79640;SDS011;69115;49.904;14.390;2023-08-31T13:59:16;5.10;;;2.42;;
79640;SDS011;69115;49.904;14.390;2023-08-31T14:01:42;4.15;;;2.00;;
79640;SDS011;69115;49.904;14.390;2023-08-31T14:04:10;6.88;;;2.20;;
79640;SDS011;69115;49.904;14.390;2023-08-31T14:06:38;4.45;;;2.30;;
79640;SDS011;69115;49.904;14.390;2023-08-31T14:09:04;3.53;;;2.10;;
79640;SDS011;69115;49.904;14.390;2023-08-31T14:11:30;4.63;;;2.17;;
79640;SDS011;69115;49.904;14.390;2023-08-31T14:14:01;3.67;;;2.00;;
79640;SDS011;69115;49.904;14.390;2023-08-31T14:16:39;5.88;;;2.20;;
79640;SDS011;69115;49.904;14.390;2023-08-31T14:19:04;5.85;;;2.13;;
79640;SDS011;69115;49.904;14.390;2023-08-31T14:21:30;3.92;;;2.15;;
79640;SDS011;69115;49.904;14.390;2023-08-31T14:23:56;4.22;;;2.10;;
79640;SDS011;69115;49.904;14.390;2023-08-31T14:26:22;4.38;;;2.03;;
79640;SDS011;69115;49.904;14.390;2023-08-31T14:28:51;6.25;;;2.20;;
79640;SDS011;69115;49.904;14.390;2023-08-31T14:31:17;4.53;;;2.40;;
79640;SDS011;69115;49.904;14.390;2023-08-31T14:33:43;3.75;;;2.17;;
79640;SDS011;69115;49.904;14.390;2023-08-31T14:36:08;3.50;;;2.20;;
79640;SDS011;69115;49.904;14.390;2023-08-31T14:38:34;6.03;;;2.13;;
79640;SDS011;69115;49.904;14.390;2023-08-31T14:40:59;5.20;;;2.15;;